Kirkman, Iowa
Current Conditions -  °F | °C
As of 8:15 PM on Saturday 22 Nov 2014 (Local Time) from KHNR Reporting Station
Overcast Overcast  
Wind Chill: 54°   Ceiling: 400
Heat Index: 54°   Visibility: 8mi
Dew Point: 54°   Wind: 15mph
Humidity: 100%   Direction: 180°S
Pressure: 29.64"   Gusts: 22mph
Location:  41.73°N, 95.27°W
Report Text: KHNR 230215Z AUTO 18013G19KT 8SM OVC004 12/12 A2964 RMK AO2
Loading
Personal Weather Stations






























Interactive Weather Map New forecast layout! Learn more

10-Day Weather Forecast

Advertisements
Track Severe Weather on mobile